sensor_id;sensor_type;location;lat;lon;timestamp;P1;durP1;ratioP1;P2;durP2;ratioP2
69185;SDS011;56298;49.246;9.410;2024-03-23T00:53:42;14.27;;;8.77;;
69185;SDS011;56298;49.246;9.410;2024-03-23T00:56:07;15.90;;;8.83;;
69185;SDS011;56298;49.246;9.410;2024-03-23T00:58:33;15.23;;;8.80;;
69185;SDS011;56298;49.246;9.410;2024-03-23T01:00:58;16.57;;;8.93;;
69185;SDS011;56298;49.246;9.410;2024-03-23T01:03:23;14.47;;;8.67;;
69185;SDS011;56298;49.246;9.410;2024-03-23T01:05:48;16.20;;;9.30;;
69185;SDS011;56298;49.246;9.410;2024-03-23T01:08:14;13.60;;;8.80;;
69185;SDS011;56298;49.246;9.410;2024-03-23T01:10:39;14.90;;;8.57;;
69185;SDS011;56298;49.246;9.410;2024-03-23T01:13:04;17.03;;;9.00;;
69185;SDS011;56298;49.246;9.410;2024-03-23T01:15:30;15.53;;;8.63;;
69185;SDS011;56298;49.246;9.410;2024-03-23T01:17:55;17.03;;;9.20;;
69185;SDS011;56298;49.246;9.410;2024-03-23T01:20:20;14.60;;;8.40;;
69185;SDS011;56298;49.246;9.410;2024-03-23T01:22:45;16.70;;;9.27;;
69185;SDS011;56298;49.246;9.410;2024-03-23T01:25:11;17.83;;;9.50;;
69185;SDS011;56298;49.246;9.410;2024-03-23T01:27:36;18.53;;;9.50;;
69185;SDS011;56298;49.246;9.410;2024-03-23T01:30:01;19.07;;;9.60;;
69185;SDS011;56298;49.246;9.410;2024-03-23T01:32:26;15.17;;;9.40;;
69185;SDS011;56298;49.246;9.410;2024-03-23T01:34:52;17.47;;;9.00;;
69185;SDS011;56298;49.246;9.410;2024-03-23T01:37:17;16.40;;;9.40;;
69185;SDS011;56298;49.246;9.410;2024-03-23T01:39:42;14.10;;;9.10;;
69185;SDS011;56298;49.246;9.410;2024-03-23T01:42:08;16.00;;;9.03;;
69185;SDS011;56298;49.246;9.410;2024-03-23T01:44:33;14.97;;;9.10;;
69185;SDS011;56298;49.246;9.410;2024-03-23T01:46:58;17.83;;;9.50;;
69185;SDS011;56298;49.246;9.410;2024-03-23T01:49:23;16.10;;;9.40;;
69185;SDS011;56298;49.246;9.410;2024-03-23T01:51:49;16.52;;;9.50;;
69185;SDS011;56298;49.246;9.410;2024-03-23T01:54:15;13.97;;;8.83;;
69185;SDS011;56298;49.246;9.410;2024-03-23T01:56:40;16.10;;;9.50;;
69185;SDS011;56298;49.246;9.410;2024-03-23T01:59:05;16.57;;;9.67;;
69185;SDS011;56298;49.246;9.410;2024-03-23T02:01:31;16.27;;;9.40;;
69185;SDS011;56298;49.246;9.410;2024-03-23T02:03:57;16.75;;;9.68;;
69185;SDS011;56298;49.246;9.410;2024-03-23T02:06:24;18.57;;;9.93;;
69185;SDS011;56298;49.246;9.410;2024-03-23T02:08:49;19.23;;;10.13;;
69185;SDS011;56298;49.246;9.410;2024-03-23T02:11:15;17.40;;;9.90;;
69185;SDS011;56298;49.246;9.410;2024-03-23T02:13:40;19.83;;;10.30;;
69185;SDS011;56298;49.246;9.410;2024-03-23T02:16:05;17.70;;;10.15;;
69185;SDS011;56298;49.246;9.410;2024-03-23T02:18:31;17.58;;;10.27;;
69185;SDS011;56298;49.246;9.410;2024-03-23T02:21:00;17.90;;;9.70;;
69185;SDS011;56298;49.246;9.410;2024-03-23T02:23:25;17.27;;;10.20;;
69185;SDS011;56298;49.246;9.410;2024-03-23T02:25:50;17.07;;;9.63;;
69185;SDS011;56298;49.246;9.410;2024-03-23T02:28:16;16.27;;;9.50;;
69185;SDS011;56298;49.246;9.410;2024-03-23T02:30:42;16.27;;;9.30;;
69185;SDS011;56298;49.246;9.410;2024-03-23T02:33:07;12.40;;;7.85;;
69185;SDS011;56298;49.246;9.410;2024-03-23T02:35:32;15.87;;;9.20;;
69185;SDS011;56298;49.246;9.410;2024-03-23T02:37:58;13.63;;;8.82;;
69185;SDS011;56298;49.246;9.410;2024-03-23T02:40:24;15.80;;;9.63;;
69185;SDS011;56298;49.246;9.410;2024-03-23T02:42:49;16.30;;;8.90;;
69185;SDS011;56298;49.246;9.410;2024-03-23T02:45:15;13.07;;;8.20;;
69185;SDS011;56298;49.246;9.410;2024-03-23T02:47:40;12.75;;;7.10;;
69185;SDS011;56298;49.246;9.410;2024-03-23T02:50:05;11.68;;;6.90;;
69185;SDS011;56298;49.246;9.410;2024-03-23T02:52:31;14.80;;;8.48;;
69185;SDS011;56298;49.246;9.410;2024-03-23T02:54:57;17.17;;;9.00;;
69185;SDS011;56298;49.246;9.410;2024-03-23T02:57:22;16.37;;;9.53;;
69185;SDS011;56298;49.246;9.410;2024-03-23T02:59:47;13.97;;;8.67;;
69185;SDS011;56298;49.246;9.410;2024-03-23T03:02:13;13.00;;;8.23;;
69185;SDS011;56298;49.246;9.410;2024-03-23T03:04:41;15.20;;;9.03;;
69185;SDS011;56298;49.246;9.410;2024-03-23T03:07:06;16.33;;;9.80;;
69185;SDS011;56298;49.246;9.410;2024-03-23T03:09:31;15.50;;;9.53;;
69185;SDS011;56298;49.246;9.410;2024-03-23T03:11:57;16.85;;;9.50;;
69185;SDS011;56298;49.246;9.410;2024-03-23T03:14:23;17.07;;;9.00;;
69185;SDS011;56298;49.246;9.410;2024-03-23T03:16:48;13.37;;;8.20;;
69185;SDS011;56298;49.246;9.410;2024-03-23T03:19:13;15.53;;;8.97;;
69185;SDS011;56298;49.246;9.410;2024-03-23T03:21:40;15.95;;;8.80;;
69185;SDS011;56298;49.246;9.410;2024-03-23T03:24:06;15.30;;;9.27;;
69185;SDS011;56298;49.246;9.410;2024-03-23T03:26:31;15.13;;;8.70;;
69185;SDS011;56298;49.246;9.410;2024-03-23T03:28:57;15.60;;;8.70;;
69185;SDS011;56298;49.246;9.410;2024-03-23T03:31:22;14.63;;;8.67;;
69185;SDS011;56298;49.246;9.410;2024-03-23T03:33:49;13.57;;;8.57;;
69185;SDS011;56298;49.246;9.410;2024-03-23T03:36:14;14.50;;;8.80;;
69185;SDS011;56298;49.246;9.410;2024-03-23T03:38:39;12.63;;;7.73;;
69185;SDS011;56298;49.246;9.410;2024-03-23T03:41:05;13.47;;;7.40;;
69185;SDS011;56298;49.246;9.410;2024-03-23T03:43:31;11.88;;;7.13;;
69185;SDS011;56298;49.246;9.410;2024-03-23T03:45:57;13.40;;;7.77;;
69185;SDS011;56298;49.246;9.410;2024-03-23T03:48:24;13.32;;;7.97;;
69185;SDS011;56298;49.246;9.410;2024-03-23T03:50:49;15.47;;;8.60;;
69185;SDS011;56298;49.246;9.410;2024-03-23T03:53:15;16.47;;;9.50;;
69185;SDS011;56298;49.246;9.410;2024-03-23T03:55:40;16.37;;;8.90;;
69185;SDS011;56298;49.246;9.410;2024-03-23T03:58:06;15.27;;;8.80;;
69185;SDS011;56298;49.246;9.410;2024-03-23T04:00:31;13.77;;;8.30;;
69185;SDS011;56298;49.246;9.410;2024-03-23T04:02:57;17.50;;;9.47;;
69185;SDS011;56298;49.246;9.410;2024-03-23T04:05:22;14.90;;;8.73;;
69185;SDS011;56298;49.246;9.410;2024-03-23T04:07:48;12.93;;;8.45;;
69185;SDS011;56298;49.246;9.410;2024-03-23T04:10:14;13.87;;;7.70;;
69185;SDS011;56298;49.246;9.410;2024-03-23T04:12:40;12.25;;;7.57;;
69185;SDS011;56298;49.246;9.410;2024-03-23T04:15:08;13.73;;;7.20;;
69185;SDS011;56298;49.246;9.410;2024-03-23T04:17:34;10.60;;;7.13;;
69185;SDS011;56298;49.246;9.410;2024-03-23T04:20:00;13.33;;;7.23;;
69185;SDS011;56298;49.246;9.410;2024-03-23T04:22:26;13.27;;;7.00;;
69185;SDS011;56298;49.246;9.410;2024-03-23T04:24:55;11.67;;;6.90;;
69185;SDS011;56298;49.246;9.410;2024-03-23T04:27:21;13.60;;;8.00;;
69185;SDS011;56298;49.246;9.410;2024-03-23T04:29:50;16.70;;;8.10;;
69185;SDS011;56298;49.246;9.410;2024-03-23T04:32:15;14.98;;;8.32;;
69185;SDS011;56298;49.246;9.410;2024-03-23T04:34:41;13.43;;;7.93;;
69185;SDS011;56298;49.246;9.410;2024-03-23T04:37:08;13.98;;;7.90;;
69185;SDS011;56298;49.246;9.410;2024-03-23T04:39:34;12.40;;;7.70;;
69185;SDS011;56298;49.246;9.410;2024-03-23T04:41:59;13.87;;;7.87;;
69185;SDS011;56298;49.246;9.410;2024-03-23T04:44:24;14.48;;;8.00;;
69185;SDS011;56298;49.246;9.410;2024-03-23T04:46:49;13.87;;;7.93;;
69185;SDS011;56298;49.246;9.410;2024-03-23T04:49:15;14.88;;;8.10;;
69185;SDS011;56298;49.246;9.410;2024-03-23T04:51:40;16.77;;;8.13;;
69185;SDS011;56298;49.246;9.410;2024-03-23T04:54:10;14.85;;;8.23;;
69185;SDS011;56298;49.246;9.410;2024-03-23T04:56:36;16.73;;;8.90;;
69185;SDS011;56298;49.246;9.410;2024-03-23T04:59:02;15.27;;;8.97;;
69185;SDS011;56298;49.246;9.410;2024-03-23T05:01:29;15.07;;;9.20;;
69185;SDS011;56298;49.246;9.410;2024-03-23T05:03:55;17.13;;;9.27;;
69185;SDS011;56298;49.246;9.410;2024-03-23T05:06:21;15.23;;;9.20;;
69185;SDS011;56298;49.246;9.410;2024-03-23T05:08:46;17.23;;;8.80;;
69185;SDS011;56298;49.246;9.410;2024-03-23T05:11:11;18.80;;;9.87;;
69185;SDS011;56298;49.246;9.410;2024-03-23T05:13:37;15.90;;;8.47;;
69185;SDS011;56298;49.246;9.410;2024-03-23T05:16:02;17.53;;;9.10;;
69185;SDS011;56298;49.246;9.410;2024-03-23T05:18:27;15.30;;;8.93;;
69185;SDS011;56298;49.246;9.410;2024-03-23T05:20:57;17.42;;;9.35;;
69185;SDS011;56298;49.246;9.410;2024-03-23T05:23:23;16.42;;;9.32;;
69185;SDS011;56298;49.246;9.410;2024-03-23T05:25:49;17.42;;;9.25;;
69185;SDS011;56298;49.246;9.410;2024-03-23T05:28:14;17.13;;;8.80;;
69185;SDS011;56298;49.246;9.410;2024-03-23T05:30:40;15.70;;;8.55;;
69185;SDS011;56298;49.246;9.410;2024-03-23T05:33:05;14.67;;;8.27;;
69185;SDS011;56298;49.246;9.410;2024-03-23T05:35:31;14.55;;;7.95;;
69185;SDS011;56298;49.246;9.410;2024-03-23T05:37:56;14.27;;;7.90;;
69185;SDS011;56298;49.246;9.410;2024-03-23T05:40:23;14.57;;;7.93;;
69185;SDS011;56298;49.246;9.410;2024-03-23T05:42:49;14.50;;;8.10;;
69185;SDS011;56298;49.246;9.410;2024-03-23T05:45:17;15.27;;;7.90;;
69185;SDS011;56298;49.246;9.410;2024-03-23T05:47:43;14.52;;;8.18;;
69185;SDS011;56298;49.246;9.410;2024-03-23T05:50:09;14.10;;;7.97;;
69185;SDS011;56298;49.246;9.410;2024-03-23T05:52:37;13.27;;;7.47;;
69185;SDS011;56298;49.246;9.410;2024-03-23T05:55:03;12.33;;;6.00;;
69185;SDS011;56298;49.246;9.410;2024-03-23T05:57:28;13.13;;;6.30;;
69185;SDS011;56298;49.246;9.410;2024-03-23T05:59:54;12.83;;;6.33;;
69185;SDS011;56298;49.246;9.410;2024-03-23T06:02:19;10.47;;;5.83;;
69185;SDS011;56298;49.246;9.410;2024-03-23T06:04:45;10.03;;;5.27;;
69185;SDS011;56298;49.246;9.410;2024-03-23T06:07:10;9.77;;;4.90;;
69185;SDS011;56298;49.246;9.410;2024-03-23T06:09:39;10.23;;;4.57;;
69185;SDS011;56298;49.246;9.410;2024-03-23T06:12:05;10.20;;;4.85;;
69185;SDS011;56298;49.246;9.410;2024-03-23T06:14:30;9.00;;;4.60;;
69185;SDS011;56298;49.246;9.410;2024-03-23T06:16:56;10.03;;;4.57;;
69185;SDS011;56298;49.246;9.410;2024-03-23T06:19:21;10.17;;;4.80;;
69185;SDS011;56298;49.246;9.410;2024-03-23T06:21:46;10.17;;;4.93;;
69185;SDS011;56298;49.246;9.410;2024-03-23T06:24:11;10.27;;;4.83;;
69185;SDS011;56298;49.246;9.410;2024-03-23T06:26:37;10.48;;;4.90;;
69185;SDS011;56298;49.246;9.410;2024-03-23T06:29:02;9.07;;;4.00;;
69185;SDS011;56298;49.246;9.410;2024-03-23T06:31:28;9.98;;;5.00;;
69185;SDS011;56298;49.246;9.410;2024-03-23T06:33:54;8.90;;;4.17;;
69185;SDS011;56298;49.246;9.410;2024-03-23T06:36:20;9.95;;;4.25;;
69185;SDS011;56298;49.246;9.410;2024-03-23T06:38:45;8.47;;;4.10;;
69185;SDS011;56298;49.246;9.410;2024-03-23T06:41:10;8.13;;;3.70;;
69185;SDS011;56298;49.246;9.410;2024-03-23T06:43:36;7.32;;;3.60;;
69185;SDS011;56298;49.246;9.410;2024-03-23T06:46:02;8.13;;;3.50;;
69185;SDS011;56298;49.246;9.410;2024-03-23T06:48:29;7.35;;;3.40;;
69185;SDS011;56298;49.246;9.410;2024-03-23T06:50:57;6.53;;;3.03;;
69185;SDS011;56298;49.246;9.410;2024-03-23T06:53:23;6.82;;;3.00;;
69185;SDS011;56298;49.246;9.410;2024-03-23T06:55:52;6.37;;;2.80;;
69185;SDS011;56298;49.246;9.410;2024-03-23T06:58:19;6.05;;;2.75;;
69185;SDS011;56298;49.246;9.410;2024-03-23T07:00:45;5.40;;;2.65;;
69185;SDS011;56298;49.246;9.410;2024-03-23T07:03:10;5.25;;;2.03;;
69185;SDS011;56298;49.246;9.410;2024-03-23T07:05:35;4.30;;;1.52;;
69185;SDS011;56298;49.246;9.410;2024-03-23T07:08:01;4.93;;;1.33;;
69185;SDS011;56298;49.246;9.410;2024-03-23T07:10:26;4.63;;;1.70;;
69185;SDS011;56298;49.246;9.410;2024-03-23T07:12:51;4.67;;;1.40;;
69185;SDS011;56298;49.246;9.410;2024-03-23T07:15:17;4.13;;;1.50;;
69185;SDS011;56298;49.246;9.410;2024-03-23T07:17:42;5.00;;;1.30;;
69185;SDS011;56298;49.246;9.410;2024-03-23T07:20:07;3.43;;;0.90;;
69185;SDS011;56298;49.246;9.410;2024-03-23T07:22:35;3.80;;;1.10;;
69185;SDS011;56298;49.246;9.410;2024-03-23T07:25:01;3.77;;;1.40;;
69185;SDS011;56298;49.246;9.410;2024-03-23T07:27:27;3.80;;;1.40;;
69185;SDS011;56298;49.246;9.410;2024-03-23T07:29:52;3.67;;;1.40;;
69185;SDS011;56298;49.246;9.410;2024-03-23T07:32:17;4.07;;;1.40;;
69185;SDS011;56298;49.246;9.410;2024-03-23T07:34:42;3.93;;;1.50;;
69185;SDS011;56298;49.246;9.410;2024-03-23T07:37:09;3.60;;;1.20;;
69185;SDS011;56298;49.246;9.410;2024-03-23T07:39:35;3.90;;;1.40;;
69185;SDS011;56298;49.246;9.410;2024-03-23T07:42:00;3.90;;;1.30;;
69185;SDS011;56298;49.246;9.410;2024-03-23T07:44:25;3.93;;;1.30;;
69185;SDS011;56298;49.246;9.410;2024-03-23T07:46:50;3.10;;;0.90;;
69185;SDS011;56298;49.246;9.410;2024-03-23T07:49:15;3.30;;;1.10;;
69185;SDS011;56298;49.246;9.410;2024-03-23T07:51:41;3.07;;;1.10;;
69185;SDS011;56298;49.246;9.410;2024-03-23T07:54:06;2.90;;;0.77;;
69185;SDS011;56298;49.246;9.410;2024-03-23T07:56:31;3.60;;;1.15;;
69185;SDS011;56298;49.246;9.410;2024-03-23T07:58:57;3.28;;;0.95;;
69185;SDS011;56298;49.246;9.410;2024-03-23T08:01:22;3.00;;;0.87;;
69185;SDS011;56298;49.246;9.410;2024-03-23T08:03:49;2.80;;;0.80;;
69185;SDS011;56298;49.246;9.410;2024-03-23T08:08:40;3.10;;;0.70;;
69185;SDS011;56298;49.246;9.410;2024-03-23T08:11:06;2.80;;;0.80;;
69185;SDS011;56298;49.246;9.410;2024-03-23T08:13:33;3.33;;;1.00;;
69185;SDS011;56298;49.246;9.410;2024-03-23T08:15:59;3.05;;;0.90;;
69185;SDS011;56298;49.246;9.410;2024-03-23T08:18:25;3.42;;;0.90;;
69185;SDS011;56298;49.246;9.410;2024-03-23T08:23:33;2.67;;;0.70;;
69185;SDS011;56298;49.246;9.410;2024-03-23T08:26:01;3.25;;;0.70;;
69185;SDS011;56298;49.246;9.410;2024-03-23T08:28:27;3.15;;;0.70;;
69185;SDS011;56298;49.246;9.410;2024-03-23T08:30:53;3.43;;;0.80;;
69185;SDS011;56298;49.246;9.410;2024-03-23T08:33:19;3.42;;;0.82;;
69185;SDS011;56298;49.246;9.410;2024-03-23T08:38:23;4.30;;;1.30;;
69185;SDS011;56298;49.246;9.410;2024-03-23T08:40:59;3.83;;;0.87;;
69185;SDS011;56298;49.246;9.410;2024-03-23T08:43:25;2.70;;;0.77;;
69185;SDS011;56298;49.246;9.410;2024-03-23T08:45:51;3.30;;;0.70;;
69185;SDS011;56298;49.246;9.410;2024-03-23T08:48:17;2.95;;;0.60;;
69185;SDS011;56298;49.246;9.410;2024-03-23T08:50:45;3.17;;;0.80;;
69185;SDS011;56298;49.246;9.410;2024-03-23T08:53:10;4.73;;;0.90;;
69185;SDS011;56298;49.246;9.410;2024-03-23T08:55:36;3.90;;;0.83;;
69185;SDS011;56298;49.246;9.410;2024-03-23T08:58:01;3.77;;;0.80;;
69185;SDS011;56298;49.246;9.410;2024-03-23T09:00:26;3.20;;;0.73;;
69185;SDS011;56298;49.246;9.410;2024-03-23T09:02:51;4.27;;;0.90;;
69185;SDS011;56298;49.246;9.410;2024-03-23T09:05:18;3.55;;;0.90;;
69185;SDS011;56298;49.246;9.410;2024-03-23T09:07:43;5.30;;;1.00;;
69185;SDS011;56298;49.246;9.410;2024-03-23T09:10:08;3.50;;;0.83;;
69185;SDS011;56298;49.246;9.410;2024-03-23T09:12:33;3.63;;;1.00;;
69185;SDS011;56298;49.246;9.410;2024-03-23T09:14:59;4.50;;;1.10;;
69185;SDS011;56298;49.246;9.410;2024-03-23T09:17:24;4.60;;;1.20;;
69185;SDS011;56298;49.246;9.410;2024-03-23T09:19:49;5.10;;;1.23;;
69185;SDS011;56298;49.246;9.410;2024-03-23T09:22:14;4.37;;;1.23;;
69185;SDS011;56298;49.246;9.410;2024-03-23T09:24:39;4.30;;;1.30;;
69185;SDS011;56298;49.246;9.410;2024-03-23T09:27:05;4.47;;;1.37;;
69185;SDS011;56298;49.246;9.410;2024-03-23T09:29:30;6.47;;;1.63;;
69185;SDS011;56298;49.246;9.410;2024-03-23T09:31:55;5.03;;;1.40;;
69185;SDS011;56298;49.246;9.410;2024-03-23T09:34:21;5.07;;;1.40;;
69185;SDS011;56298;49.246;9.410;2024-03-23T09:36:46;4.83;;;1.20;;
69185;SDS011;56298;49.246;9.410;2024-03-23T09:39:12;4.93;;;1.42;;
69185;SDS011;56298;49.246;9.410;2024-03-23T09:41:38;5.68;;;1.48;;
69185;SDS011;56298;49.246;9.410;2024-03-23T09:44:04;5.20;;;1.60;;
69185;SDS011;56298;49.246;9.410;2024-03-23T09:46:30;5.13;;;1.45;;
69185;SDS011;56298;49.246;9.410;2024-03-23T09:48:59;5.30;;;1.40;;
69185;SDS011;56298;49.246;9.410;2024-03-23T09:51:24;5.70;;;1.73;;
69185;SDS011;56298;49.246;9.410;2024-03-23T09:53:49;5.80;;;1.73;;
69185;SDS011;56298;49.246;9.410;2024-03-23T09:56:15;4.57;;;1.43;;
69185;SDS011;56298;49.246;9.410;2024-03-23T09:58:42;5.07;;;1.65;;
69185;SDS011;56298;49.246;9.410;2024-03-23T10:01:07;8.17;;;1.90;;
69185;SDS011;56298;49.246;9.410;2024-03-23T10:03:41;5.40;;;1.63;;
69185;SDS011;56298;49.246;9.410;2024-03-23T10:06:07;6.03;;;1.77;;
69185;SDS011;56298;49.246;9.410;2024-03-23T10:08:32;5.60;;;1.70;;
69185;SDS011;56298;49.246;9.410;2024-03-23T10:10:58;6.70;;;1.93;;
69185;SDS011;56298;49.246;9.410;2024-03-23T10:13:37;7.13;;;2.03;;
69185;SDS011;56298;49.246;9.410;2024-03-23T10:16:06;6.95;;;1.98;;
69185;SDS011;56298;49.246;9.410;2024-03-23T10:18:32;6.80;;;1.93;;
69185;SDS011;56298;49.246;9.410;2024-03-23T10:23:30;5.47;;;1.90;;
69185;SDS011;56298;49.246;9.410;2024-03-23T10:25:55;6.30;;;2.17;;
69185;SDS011;56298;49.246;9.410;2024-03-23T10:28:20;7.17;;;2.20;;
69185;SDS011;56298;49.246;9.410;2024-03-23T10:30:45;6.80;;;2.23;;
69185;SDS011;56298;49.246;9.410;2024-03-23T10:33:10;7.67;;;2.00;;
69185;SDS011;56298;49.246;9.410;2024-03-23T10:35:37;5.93;;;1.90;;
69185;SDS011;56298;49.246;9.410;2024-03-23T10:38:06;5.78;;;1.80;;
69185;SDS011;56298;49.246;9.410;2024-03-23T10:40:33;7.50;;;1.90;;
69185;SDS011;56298;49.246;9.410;2024-03-23T10:43:00;7.22;;;2.35;;
69185;SDS011;56298;49.246;9.410;2024-03-23T10:45:25;6.80;;;2.00;;
69185;SDS011;56298;49.246;9.410;2024-03-23T10:47:51;6.75;;;2.00;;
69185;SDS011;56298;49.246;9.410;2024-03-23T10:50:17;7.05;;;2.05;;
69185;SDS011;56298;49.246;9.410;2024-03-23T10:52:42;7.67;;;2.20;;
69185;SDS011;56298;49.246;9.410;2024-03-23T10:55:11;11.07;;;3.47;;
69185;SDS011;56298;49.246;9.410;2024-03-23T10:57:42;8.18;;;2.40;;
69185;SDS011;56298;49.246;9.410;2024-03-23T11:00:13;6.35;;;2.22;;
69185;SDS011;56298;49.246;9.410;2024-03-23T11:02:39;7.50;;;1.90;;
69185;SDS011;56298;49.246;9.410;2024-03-23T11:07:52;7.03;;;2.33;;
69185;SDS011;56298;49.246;9.410;2024-03-23T11:10:25;7.95;;;1.98;;
69185;SDS011;56298;49.246;9.410;2024-03-23T11:12:50;8.75;;;2.30;;
69185;SDS011;56298;49.246;9.410;2024-03-23T11:15:16;7.77;;;2.00;;
69185;SDS011;56298;49.246;9.410;2024-03-23T11:17:41;7.50;;;2.13;;
69185;SDS011;56298;49.246;9.410;2024-03-23T11:20:06;9.33;;;2.30;;
69185;SDS011;56298;49.246;9.410;2024-03-23T11:25:02;7.20;;;1.90;;
69185;SDS011;56298;49.246;9.410;2024-03-23T11:27:27;7.45;;;2.10;;
69185;SDS011;56298;49.246;9.410;2024-03-23T11:29:53;7.00;;;1.95;;
69185;SDS011;56298;49.246;9.410;2024-03-23T11:32:18;7.87;;;2.50;;
69185;SDS011;56298;49.246;9.410;2024-03-23T11:34:43;9.17;;;2.30;;
69185;SDS011;56298;49.246;9.410;2024-03-23T11:37:08;8.87;;;2.70;;
69185;SDS011;56298;49.246;9.410;2024-03-23T11:39:34;9.00;;;2.60;;
69185;SDS011;56298;49.246;9.410;2024-03-23T11:41:59;7.73;;;2.30;;
69185;SDS011;56298;49.246;9.410;2024-03-23T11:44:27;9.07;;;2.30;;
69185;SDS011;56298;49.246;9.410;2024-03-23T11:46:52;7.38;;;2.20;;
69185;SDS011;56298;49.246;9.410;2024-03-23T11:51:50;9.05;;;2.42;;
69185;SDS011;56298;49.246;9.410;2024-03-23T11:54:20;7.95;;;2.17;;
69185;SDS011;56298;49.246;9.410;2024-03-23T11:56:55;7.35;;;1.95;;
69185;SDS011;56298;49.246;9.410;2024-03-23T12:01:57;6.68;;;1.70;;
69185;SDS011;56298;49.246;9.410;2024-03-23T12:04:27;8.95;;;2.10;;
69185;SDS011;56298;49.246;9.410;2024-03-23T12:07:08;6.80;;;1.87;;
69185;SDS011;56298;49.246;9.410;2024-03-23T12:09:37;8.38;;;2.20;;
69185;SDS011;56298;49.246;9.410;2024-03-23T12:12:16;7.33;;;2.20;;
69185;SDS011;56298;49.246;9.410;2024-03-23T12:14:46;7.60;;;2.30;;
69185;SDS011;56298;49.246;9.410;2024-03-23T12:17:26;8.57;;;1.93;;
69185;SDS011;56298;49.246;9.410;2024-03-23T12:19:52;9.53;;;2.70;;
69185;SDS011;56298;49.246;9.410;2024-03-23T12:22:20;9.00;;;2.67;;
69185;SDS011;56298;49.246;9.410;2024-03-23T12:24:46;7.60;;;2.40;;
69185;SDS011;56298;49.246;9.410;2024-03-23T12:27:11;8.27;;;2.30;;
69185;SDS011;56298;49.246;9.410;2024-03-23T12:29:36;6.93;;;2.50;;
69185;SDS011;56298;49.246;9.410;2024-03-23T12:32:04;8.82;;;2.95;;
69185;SDS011;56298;49.246;9.410;2024-03-23T12:34:29;7.78;;;2.22;;
69185;SDS011;56298;49.246;9.410;2024-03-23T12:36:55;7.03;;;2.00;;
69185;SDS011;56298;49.246;9.410;2024-03-23T12:39:21;9.47;;;2.13;;
69185;SDS011;56298;49.246;9.410;2024-03-23T12:41:46;9.00;;;2.27;;
69185;SDS011;56298;49.246;9.410;2024-03-23T12:44:12;7.10;;;1.90;;
69185;SDS011;56298;49.246;9.410;2024-03-23T12:46:38;6.95;;;2.42;;
69185;SDS011;56298;49.246;9.410;2024-03-23T12:49:04;8.18;;;2.50;;
69185;SDS011;56298;49.246;9.410;2024-03-23T12:51:30;7.00;;;2.03;;
69185;SDS011;56298;49.246;9.410;2024-03-23T12:53:55;9.27;;;2.23;;
69185;SDS011;56298;49.246;9.410;2024-03-23T12:56:20;6.20;;;1.87;;
69185;SDS011;56298;49.246;9.410;2024-03-23T12:58:46;7.57;;;1.80;;
69185;SDS011;56298;49.246;9.410;2024-03-23T13:01:16;6.30;;;1.75;;
69185;SDS011;56298;49.246;9.410;2024-03-23T13:03:41;7.47;;;1.60;;
69185;SDS011;56298;49.246;9.410;2024-03-23T13:06:06;7.67;;;1.40;;
69185;SDS011;56298;49.246;9.410;2024-03-23T13:08:33;8.75;;;1.60;;
69185;SDS011;56298;49.246;9.410;2024-03-23T13:10:58;7.03;;;1.70;;
69185;SDS011;56298;49.246;9.410;2024-03-23T13:13:24;7.50;;;1.67;;
69185;SDS011;56298;49.246;9.410;2024-03-23T13:15:49;7.33;;;1.20;;
69185;SDS011;56298;49.246;9.410;2024-03-23T13:18:15;6.13;;;1.40;;
69185;SDS011;56298;49.246;9.410;2024-03-23T13:20:41;5.83;;;1.37;;
69185;SDS011;56298;49.246;9.410;2024-03-23T13:23:06;6.10;;;1.30;;
69185;SDS011;56298;49.246;9.410;2024-03-23T13:25:31;7.37;;;1.57;;
69185;SDS011;56298;49.246;9.410;2024-03-23T13:27:56;5.83;;;1.30;;
69185;SDS011;56298;49.246;9.410;2024-03-23T13:30:21;6.60;;;1.57;;
69185;SDS011;56298;49.246;9.410;2024-03-23T13:32:47;7.37;;;1.77;;
69185;SDS011;56298;49.246;9.410;2024-03-23T13:35:12;5.07;;;1.50;;
69185;SDS011;56298;49.246;9.410;2024-03-23T13:37:37;5.40;;;1.70;;
69185;SDS011;56298;49.246;9.410;2024-03-23T13:40:02;5.93;;;1.20;;
69185;SDS011;56298;49.246;9.410;2024-03-23T13:42:28;8.52;;;1.83;;
69185;SDS011;56298;49.246;9.410;2024-03-23T13:44:53;8.47;;;2.40;;
69185;SDS011;56298;49.246;9.410;2024-03-23T13:47:18;7.57;;;2.20;;
69185;SDS011;56298;49.246;9.410;2024-03-23T13:49:43;7.00;;;2.27;;
69185;SDS011;56298;49.246;9.410;2024-03-23T13:52:09;7.77;;;2.50;;
69185;SDS011;56298;49.246;9.410;2024-03-23T13:54:34;8.47;;;2.40;;
69185;SDS011;56298;49.246;9.410;2024-03-23T13:56:59;7.77;;;2.23;;
69185;SDS011;56298;49.246;9.410;2024-03-23T13:59:24;6.23;;;1.90;;
69185;SDS011;56298;49.246;9.410;2024-03-23T14:01:50;7.00;;;2.33;;
69185;SDS011;56298;49.246;9.410;2024-03-23T14:04:17;7.90;;;2.38;;
69185;SDS011;56298;49.246;9.410;2024-03-23T14:06:44;6.60;;;2.40;;
69185;SDS011;56298;49.246;9.410;2024-03-23T14:09:11;5.83;;;1.80;;
69185;SDS011;56298;49.246;9.410;2024-03-23T14:11:40;7.65;;;2.17;;
69185;SDS011;56298;49.246;9.410;2024-03-23T14:14:07;9.75;;;2.33;;
69185;SDS011;56298;49.246;9.410;2024-03-23T14:16:33;6.97;;;2.10;;
69185;SDS011;56298;49.246;9.410;2024-03-23T14:18:58;6.17;;;1.50;;
69185;SDS011;56298;49.246;9.410;2024-03-23T14:21:23;6.77;;;1.80;;
69185;SDS011;56298;49.246;9.410;2024-03-23T14:23:49;7.33;;;2.27;;
69185;SDS011;56298;49.246;9.410;2024-03-23T14:26:14;8.33;;;2.70;;
69185;SDS011;56298;49.246;9.410;2024-03-23T14:28:39;7.03;;;2.37;;
69185;SDS011;56298;49.246;9.410;2024-03-23T14:31:05;5.88;;;1.65;;
69185;SDS011;56298;49.246;9.410;2024-03-23T14:33:35;6.50;;;1.80;;
69185;SDS011;56298;49.246;9.410;2024-03-23T14:36:02;6.83;;;1.63;;
69185;SDS011;56298;49.246;9.410;2024-03-23T14:38:28;5.93;;;1.10;;
69185;SDS011;56298;49.246;9.410;2024-03-23T14:40:53;4.47;;;1.27;;
69185;SDS011;56298;49.246;9.410;2024-03-23T14:43:18;6.27;;;1.83;;
69185;SDS011;56298;49.246;9.410;2024-03-23T14:48:32;6.32;;;1.30;;
69185;SDS011;56298;49.246;9.410;2024-03-23T14:50:58;5.22;;;1.50;;
69185;SDS011;56298;49.246;9.410;2024-03-23T14:53:25;6.27;;;1.00;;
69185;SDS011;56298;49.246;9.410;2024-03-23T14:55:54;4.90;;;0.80;;
69185;SDS011;56298;49.246;9.410;2024-03-23T14:58:19;5.03;;;1.10;;
69185;SDS011;56298;49.246;9.410;2024-03-23T15:00:45;4.90;;;0.90;;
69185;SDS011;56298;49.246;9.410;2024-03-23T15:03:10;6.07;;;1.07;;
69185;SDS011;56298;49.246;9.410;2024-03-23T15:05:35;4.07;;;0.90;;
69185;SDS011;56298;49.246;9.410;2024-03-23T15:08:02;4.93;;;1.00;;
69185;SDS011;56298;49.246;9.410;2024-03-23T15:10:28;5.03;;;0.80;;
69185;SDS011;56298;49.246;9.410;2024-03-23T15:12:53;4.23;;;0.77;;
69185;SDS011;56298;49.246;9.410;2024-03-23T15:15:18;5.67;;;0.90;;
69185;SDS011;56298;49.246;9.410;2024-03-23T15:17:43;6.03;;;1.10;;
69185;SDS011;56298;49.246;9.410;2024-03-23T15:20:10;4.13;;;0.90;;
69185;SDS011;56298;49.246;9.410;2024-03-23T15:22:39;5.80;;;1.33;;
69185;SDS011;56298;49.246;9.410;2024-03-23T15:25:04;6.03;;;1.80;;
69185;SDS011;56298;49.246;9.410;2024-03-23T15:27:29;5.90;;;2.00;;
69185;SDS011;56298;49.246;9.410;2024-03-23T15:29:57;6.87;;;1.77;;
69185;SDS011;56298;49.246;9.410;2024-03-23T15:32:23;5.13;;;1.10;;
69185;SDS011;56298;49.246;9.410;2024-03-23T15:34:48;5.87;;;1.70;;
69185;SDS011;56298;49.246;9.410;2024-03-23T15:37:13;4.53;;;1.07;;
69185;SDS011;56298;49.246;9.410;2024-03-23T15:39:39;4.35;;;0.80;;
69185;SDS011;56298;49.246;9.410;2024-03-23T15:42:06;4.33;;;0.87;;
69185;SDS011;56298;49.246;9.410;2024-03-23T15:44:32;6.45;;;1.00;;
69185;SDS011;56298;49.246;9.410;2024-03-23T15:46:57;5.00;;;0.87;;
69185;SDS011;56298;49.246;9.410;2024-03-23T15:49:22;5.13;;;0.90;;
69185;SDS011;56298;49.246;9.410;2024-03-23T15:51:47;5.03;;;1.17;;